Time;durP1;ratioP1;P1;durP2;ratioP2;P2;SDS_P1;SDS_P2;PMS_P1;PMS_P2;Temp;Humidity;BMP_temperature;BMP_pressure;BME280_temperature;BME280_humidity;BME280_pressure;Samples;Min_cycle;Max_cycle;Signal;HPM_P1;HPM_P2
2023/08/01 00:00:51;;;;;;;10.10;3.37;;;17.10;99.90;;;;;;5069570;28;20457;-71
2023/08/01 00:03:17;;;;;;;12.05;3.45;;;17.10;99.90;;;;;;5088453;28;20446;-71
2023/08/01 00:05:44;;;;;;;11.35;3.80;;;17.10;99.90;;;;;;5080711;28;20414;-71
2023/08/01 00:08:12;;;;;;;15.93;4.20;;;17.00;99.90;;;;;;5052214;28;20509;-71
2023/08/01 00:10:39;;;;;;;11.53;3.67;;;17.00;99.90;;;;;;5087720;28;20402;-71
2023/08/01 00:13:04;;;;;;;13.63;4.30;;;17.10;99.90;;;;;;5070212;28;20436;-71
2023/08/01 00:15:30;;;;;;;14.90;3.93;;;17.00;99.90;;;;;;5088246;28;20398;-71
2023/08/01 00:17:56;;;;;;;14.88;4.28;;;17.00;99.90;;;;;;5069269;28;20414;-70
2023/08/01 00:20:22;;;;;;;13.07;4.38;;;17.00;99.90;;;;;;5087418;28;20430;-70
2023/08/01 00:22:47;;;;;;;14.53;4.10;;;17.00;99.90;;;;;;5086785;28;20402;-70
2023/08/01 00:25:13;;;;;;;17.13;4.78;;;17.00;99.90;;;;;;5087082;28;20398;-70
2023/08/01 00:27:39;;;;;;;13.70;4.20;;;17.00;99.90;;;;;;5086680;28;20417;-70
2023/08/01 00:30:05;;;;;;;17.73;4.63;;;17.00;99.90;;;;;;5086702;28;20395;-70
2023/08/01 00:32:31;;;;;;;13.50;4.60;;;17.00;99.90;;;;;;5068211;28;20451;-70
2023/08/01 00:34:56;;;;;;;17.50;5.10;;;17.00;99.90;;;;;;5086829;28;20390;-70
2023/08/01 00:37:22;;;;;;;13.77;4.60;;;17.00;99.90;;;;;;5086930;28;20762;-70
2023/08/01 00:39:48;;;;;;;12.70;4.57;;;17.00;99.90;;;;;;5086765;28;20390;-70
2023/08/01 00:42:13;;;;;;;14.77;4.53;;;17.00;99.90;;;;;;5086407;28;20521;-72
2023/08/01 00:44:39;;;;;;;13.87;4.50;;;17.00;99.90;;;;;;5086669;28;20745;-71
2023/08/01 00:47:05;;;;;;;12.40;4.05;;;17.00;99.90;;;;;;5086806;28;20560;-72
2023/08/01 00:49:31;;;;;;;13.03;4.07;;;17.00;99.90;;;;;;5086518;28;20430;-71
2023/08/01 00:51:56;;;;;;;14.88;4.97;;;16.90;99.90;;;;;;5068316;28;20418;-72
2023/08/01 00:54:22;;;;;;;11.40;4.35;;;16.90;99.90;;;;;;5086746;28;20402;-71
2023/08/01 00:56:48;;;;;;;11.27;4.37;;;16.90;99.90;;;;;;5085897;28;20807;-72
2023/08/01 00:59:13;;;;;;;12.98;4.40;;;16.80;99.90;;;;;;5076445;28;20400;-71
2023/08/01 01:01:39;;;;;;;12.93;4.27;;;16.80;99.90;;;;;;5086647;28;20488;-71
2023/08/01 01:04:05;;;;;;;12.70;3.85;;;16.90;99.90;;;;;;5086723;28;20544;-72
2023/08/01 01:06:37;;;;;;;13.53;4.43;;;16.90;99.90;;;;;;5086596;28;20397;-72
2023/08/01 01:09:13;;;;;;;12.70;4.65;;;16.80;99.90;;;;;;5086196;28;20456;-71
2023/08/01 01:11:39;;;;;;;16.02;4.40;;;16.80;99.90;;;;;;5086454;28;20451;-71
2023/08/01 01:14:04;;;;;;;14.70;4.60;;;16.80;99.90;;;;;;5086146;28;20471;-71
2023/08/01 01:16:30;;;;;;;13.73;4.40;;;16.70;99.90;;;;;;5078997;28;20403;-72
2023/08/01 01:18:56;;;;;;;14.33;4.80;;;16.70;99.90;;;;;;5069706;28;20486;-72
2023/08/01 01:21:21;;;;;;;14.15;4.78;;;16.70;99.90;;;;;;5090178;28;20402;-71
2023/08/01 01:23:48;;;;;;;11.00;4.00;;;16.70;99.90;;;;;;5071699;28;20452;-71
2023/08/01 01:26:16;;;;;;;11.88;4.10;;;16.60;99.90;;;;;;5089886;28;20485;-72
2023/08/01 01:28:43;;;;;;;12.57;4.55;;;16.60;99.90;;;;;;5071795;28;20448;-72
2023/08/01 01:31:09;;;;;;;12.30;4.20;;;16.60;99.90;;;;;;5090207;28;20413;-71
2023/08/01 01:33:35;;;;;;;12.53;4.60;;;16.60;99.90;;;;;;5072538;28;20414;-72
2023/08/01 01:36:02;;;;;;;14.68;4.55;;;16.60;99.90;;;;;;5090869;28;21168;-72
2023/08/01 01:38:27;;;;;;;14.23;4.72;;;16.50;99.90;;;;;;5072089;28;20497;-70
2023/08/01 01:40:53;;;;;;;13.93;4.30;;;16.50;99.90;;;;;;5072417;28;20498;-72
2023/08/01 01:43:18;;;;;;;13.18;4.32;;;16.50;99.90;;;;;;5090237;28;20398;-70
2023/08/01 01:45:44;;;;;;;13.30;4.97;;;16.40;99.90;;;;;;5072646;28;20823;-70
2023/08/01 01:48:10;;;;;;;12.73;4.38;;;16.40;99.90;;;;;;5089699;28;20442;-70
2023/08/01 01:50:35;;;;;;;11.47;4.03;;;16.30;99.90;;;;;;5090393;28;20839;-71
2023/08/01 01:53:01;;;;;;;13.43;4.30;;;16.30;99.90;;;;;;5090642;28;20402;-70
2023/08/01 01:55:26;;;;;;;13.77;4.70;;;16.30;99.90;;;;;;5090711;28;20755;-71
2023/08/01 01:57:52;;;;;;;10.97;4.17;;;16.20;99.90;;;;;;5090101;28;20424;-71
2023/08/01 02:00:17;;;;;;;12.80;4.50;;;16.20;99.90;;;;;;5072412;28;20406;-71
2023/08/01 02:02:43;;;;;;;11.43;4.50;;;16.20;99.90;;;;;;5089749;28;20416;-71
2023/08/01 02:05:09;;;;;;;11.87;4.50;;;16.10;99.90;;;;;;5090348;28;20405;-71
2023/08/01 02:07:34;;;;;;;12.25;4.20;;;16.10;99.90;;;;;;5089789;28;20432;-71
2023/08/01 02:10:01;;;;;;;11.67;4.33;;;16.10;99.90;;;;;;5072506;28;20959;-71
2023/08/01 02:12:27;;;;;;;14.43;4.50;;;16.10;99.90;;;;;;5089608;28;20414;-71
2023/08/01 02:14:53;;;;;;;10.63;4.10;;;16.10;99.90;;;;;;5090270;28;20482;-71
2023/08/01 02:17:18;;;;;;;11.80;4.40;;;16.00;99.90;;;;;;5089595;28;20434;-71
2023/08/01 02:19:44;;;;;;;11.20;4.32;;;16.00;99.90;;;;;;5090447;28;20402;-71
2023/08/01 02:22:09;;;;;;;10.70;4.67;;;16.10;99.90;;;;;;5089822;28;20405;-71
2023/08/01 02:24:35;;;;;;;13.13;4.50;;;16.10;99.90;;;;;;5090020;28;20471;-71
2023/08/01 02:27:00;;;;;;;10.27;4.47;;;16.10;99.90;;;;;;5089639;28;20398;-71
2023/08/01 02:29:26;;;;;;;13.43;4.33;;;16.00;99.90;;;;;;5089790;28;20426;-71
2023/08/01 02:31:51;;;;;;;13.88;4.70;;;16.00;99.90;;;;;;5088568;28;20398;-71
2023/08/01 02:34:17;;;;;;;12.03;4.60;;;16.00;99.90;;;;;;5089603;28;20410;-71
2023/08/01 02:36:43;;;;;;;12.57;4.77;;;16.00;99.90;;;;;;5089665;28;20751;-71
2023/08/01 02:39:08;;;;;;;13.15;4.85;;;15.90;99.90;;;;;;5088791;28;20394;-71
2023/08/01 02:41:34;;;;;;;11.67;4.83;;;15.90;99.90;;;;;;5089216;28;20920;-71
2023/08/01 02:43:59;;;;;;;15.18;5.07;;;15.90;99.90;;;;;;5070762;28;20405;-71
2023/08/01 02:46:27;;;;;;;10.80;4.87;;;15.90;99.90;;;;;;5071028;28;20483;-72
2023/08/01 02:48:54;;;;;;;13.25;5.00;;;15.80;99.90;;;;;;5054377;28;20429;-72
2023/08/01 02:51:19;;;;;;;11.48;4.68;;;15.80;99.90;;;;;;5088927;28;20398;-70
2023/08/01 02:53:45;;;;;;;11.80;4.82;;;15.70;99.90;;;;;;5070630;28;20802;-70
2023/08/01 02:56:10;;;;;;;12.63;4.55;;;15.70;99.90;;;;;;5088206;28;20443;-71
2023/08/01 02:58:36;;;;;;;12.83;4.87;;;15.70;99.90;;;;;;5089226;28;20417;-71
2023/08/01 03:01:08;;;;;;;14.73;4.75;;;15.60;99.90;;;;;;5088808;28;20896;-70
2023/08/01 03:03:35;;;;;;;10.57;4.63;;;15.60;99.90;;;;;;5089031;28;20398;-70
2023/08/01 03:06:01;;;;;;;10.48;4.35;;;15.60;99.90;;;;;;5088648;28;20825;-69
2023/08/01 03:08:27;;;;;;;8.67;4.10;;;15.60;99.90;;;;;;5082966;28;20427;-71
2023/08/01 03:10:54;;;;;;;11.40;4.20;;;15.60;99.90;;;;;;5067431;28;20412;-70
2023/08/01 03:13:20;;;;;;;8.68;4.30;;;15.60;99.90;;;;;;5089030;28;20802;-71
2023/08/01 03:15:45;;;;;;;10.35;4.40;;;15.50;99.90;;;;;;5088883;28;20407;-70
2023/08/01 03:18:11;;;;;;;12.10;4.40;;;15.50;99.90;;;;;;5088512;28;20429;-71
2023/08/01 03:20:37;;;;;;;10.93;4.17;;;15.50;99.90;;;;;;5088034;28;20406;-72
2023/08/01 03:23:02;;;;;;;13.43;4.15;;;15.50;99.90;;;;;;5088120;28;20446;-72
2023/08/01 03:25:28;;;;;;;9.75;3.90;;;15.50;99.90;;;;;;5087840;28;20405;-72
2023/08/01 03:27:54;;;;;;;9.77;3.83;;;15.40;99.90;;;;;;5069943;28;20835;-72
2023/08/01 03:30:20;;;;;;;12.57;4.70;;;15.40;99.90;;;;;;5088419;28;20408;-72
2023/08/01 03:32:46;;;;;;;10.63;4.18;;;15.50;99.90;;;;;;5077536;28;20402;-72
2023/08/01 03:35:13;;;;;;;10.50;4.22;;;15.50;99.90;;;;;;5070453;28;20430;-70
2023/08/01 03:37:40;;;;;;;9.88;4.15;;;15.50;99.90;;;;;;5078081;28;20416;-70
2023/08/01 03:40:08;;;;;;;16.77;4.83;;;15.50;99.90;;;;;;5088391;28;20458;-70
2023/08/01 03:42:34;;;;;;;12.05;4.07;;;15.50;99.90;;;;;;5088184;28;20398;-70
2023/08/01 03:45:00;;;;;;;10.20;3.95;;;15.60;99.90;;;;;;5088306;28;20481;-72
2023/08/01 03:47:26;;;;;;;8.87;3.90;;;15.60;99.90;;;;;;5088015;28;20477;-72
2023/08/01 03:49:51;;;;;;;11.50;4.20;;;15.60;99.90;;;;;;5088078;28;20429;-71
2023/08/01 03:52:17;;;;;;;11.47;4.43;;;15.60;99.90;;;;;;5088126;28;20440;-71
2023/08/01 03:54:43;;;;;;;10.88;4.20;;;15.60;99.90;;;;;;5088121;28;20413;-70
2023/08/01 03:57:09;;;;;;;12.90;4.77;;;15.60;99.90;;;;;;5069166;28;20914;-71
2023/08/01 03:59:34;;;;;;;14.40;4.70;;;15.70;99.90;;;;;;5088078;28;20409;-70
2023/08/01 04:02:00;;;;;;;11.57;5.03;;;15.70;99.90;;;;;;5088159;28;21039;-71
2023/08/01 04:04:25;;;;;;;12.75;5.10;;;15.70;99.90;;;;;;5088291;28;20398;-70
2023/08/01 04:06:51;;;;;;;13.40;5.07;;;15.70;99.90;;;;;;5088730;28;20409;-71
2023/08/01 04:09:16;;;;;;;15.57;5.57;;;15.60;99.90;;;;;;5087410;28;21065;-71
2023/08/01 04:11:42;;;;;;;15.13;5.23;;;15.60;99.90;;;;;;5060902;28;20413;-71
2023/08/01 04:14:08;;;;;;;14.10;5.43;;;15.60;99.90;;;;;;5087451;28;20441;-71
2023/08/01 04:16:34;;;;;;;14.20;5.35;;;15.70;99.90;;;;;;5070163;28;20744;-72
2023/08/01 04:18:59;;;;;;;14.93;5.70;;;15.60;99.90;;;;;;5087702;28;20790;-72
2023/08/01 04:21:25;;;;;;;12.57;5.30;;;15.70;99.90;;;;;;5088372;28;20402;-72
2023/08/01 04:23:51;;;;;;;11.02;4.18;;;15.70;99.90;;;;;;5069991;28;20406;-72
2023/08/01 04:26:16;;;;;;;9.97;3.73;;;15.60;99.90;;;;;;5088205;28;20401;-72
2023/08/01 04:28:42;;;;;;;8.73;3.83;;;15.60;99.90;;;;;;5069199;28;20911;-72
2023/08/01 04:31:08;;;;;;;10.10;3.93;;;15.60;99.90;;;;;;5070098;28;20485;-71
2023/08/01 04:33:33;;;;;;;14.00;4.00;;;15.60;99.90;;;;;;5087489;28;20401;-71
2023/08/01 04:35:59;;;;;;;10.97;4.20;;;15.60;99.90;;;;;;5087772;28;20402;-71
2023/08/01 04:38:24;;;;;;;10.20;4.00;;;15.60;99.90;;;;;;5087849;28;20798;-71
2023/08/01 04:40:50;;;;;;;11.15;4.20;;;15.60;99.90;;;;;;5087607;28;20481;-71
2023/08/01 04:43:15;;;;;;;12.43;4.30;;;15.70;99.90;;;;;;5086893;28;20404;-69
2023/08/01 04:45:41;;;;;;;10.18;3.88;;;15.60;99.90;;;;;;5087284;28;20390;-70
2023/08/01 04:48:06;;;;;;;10.43;4.00;;;15.60;99.90;;;;;;5069331;28;20465;-70
2023/08/01 04:50:32;;;;;;;12.07;4.60;;;15.70;99.90;;;;;;5086870;28;20394;-70
2023/08/01 04:52:58;;;;;;;11.23;3.90;;;15.70;99.90;;;;;;5087399;28;20791;-70
2023/08/01 04:55:23;;;;;;;10.07;4.13;;;15.60;99.90;;;;;;5089504;28;20433;-70
2023/08/01 04:57:49;;;;;;;11.73;3.67;;;15.70;99.90;;;;;;5091345;28;20423;-71
2023/08/01 05:00:15;;;;;;;9.73;3.60;;;15.70;99.90;;;;;;5090660;28;20471;-71
2023/08/01 05:02:40;;;;;;;11.93;3.60;;;15.70;99.90;;;;;;5091233;28;20409;-71
2023/08/01 05:05:06;;;;;;;9.30;3.30;;;15.70;99.90;;;;;;5091469;28;20398;-71
2023/08/01 05:07:32;;;;;;;9.00;3.55;;;15.70;99.90;;;;;;5073022;28;20394;-71
2023/08/01 05:09:57;;;;;;;11.20;3.17;;;15.60;99.90;;;;;;5091431;28;20934;-71
2023/08/01 05:12:23;;;;;;;8.23;3.30;;;15.70;99.90;;;;;;5090517;28;20394;-71
2023/08/01 05:14:48;;;;;;;6.27;1.87;;;15.70;99.90;;;;;;5091183;28;20401;-71
2023/08/01 05:17:15;;;;;;;11.30;2.80;;;15.70;99.90;;;;;;5090915;28;20825;-69
2023/08/01 05:19:41;;;;;;;12.07;2.65;;;15.80;99.90;;;;;;5079323;28;20430;-69
2023/08/01 05:22:06;;;;;;;11.18;2.20;;;15.80;99.90;;;;;;5089847;28;20440;-70
2023/08/01 05:24:32;;;;;;;9.10;2.40;;;15.80;99.90;;;;;;5054285;28;20447;-71
2023/08/01 05:26:57;;;;;;;8.50;2.30;;;15.80;99.90;;;;;;5070705;28;20467;-71
2023/08/01 05:29:23;;;;;;;7.82;2.00;;;15.80;99.90;;;;;;5089092;28;21126;-71
2023/08/01 05:31:49;;;;;;;7.83;2.20;;;15.80;99.90;;;;;;5089517;28;20402;-71
2023/08/01 05:34:14;;;;;;;10.90;2.50;;;16.00;99.90;;;;;;5072247;28;20485;-71
2023/08/01 05:36:40;;;;;;;6.57;2.37;;;16.00;99.90;;;;;;5090602;28;20409;-71
2023/08/01 05:39:05;;;;;;;7.93;2.10;;;16.10;99.90;;;;;;5072709;28;20410;-71
2023/08/01 05:41:31;;;;;;;9.50;2.13;;;16.20;99.90;;;;;;5072787;28;20402;-71
2023/08/01 05:43:57;;;;;;;6.43;1.93;;;16.30;99.90;;;;;;5090870;28;20896;-71
2023/08/01 05:46:23;;;;;;;7.53;2.05;;;16.50;99.90;;;;;;5090202;28;20402;-71
2023/08/01 05:48:48;;;;;;;7.53;1.87;;;16.60;99.90;;;;;;5090746;28;20445;-71
2023/08/01 05:51:14;;;;;;;7.03;1.80;;;16.80;99.90;;;;;;5089763;28;20797;-71
2023/08/01 05:53:40;;;;;;;8.25;1.90;;;16.90;99.90;;;;;;5090734;28;20486;-71
2023/08/01 05:56:05;;;;;;;10.13;2.07;;;16.90;99.90;;;;;;5090155;28;20413;-71
2023/08/01 05:58:31;;;;;;;8.85;2.50;;;16.90;99.90;;;;;;5089775;28;20401;-72
2023/08/01 06:00:57;;;;;;;9.77;1.80;;;16.90;99.90;;;;;;5089783;28;20398;-70
2023/08/01 06:03:22;;;;;;;7.70;1.92;;;16.80;99.90;;;;;;5089985;28;20493;-70
2023/08/01 06:05:48;;;;;;;7.93;1.90;;;16.80;99.90;;;;;;5088840;28;20797;-70
2023/08/01 06:08:15;;;;;;;9.45;2.10;;;16.60;99.90;;;;;;5089548;28;20447;-70
2023/08/01 06:10:41;;;;;;;8.23;2.08;;;16.60;99.90;;;;;;5089945;28;20409;-70
2023/08/01 06:13:07;;;;;;;7.27;2.00;;;16.50;99.90;;;;;;5089993;28;20394;-70
2023/08/01 06:15:33;;;;;;;9.00;1.90;;;16.50;99.90;;;;;;5077917;28;20411;-70
2023/08/01 06:17:58;;;;;;;6.82;2.30;;;16.50;99.90;;;;;;5071726;28;20417;-71
2023/08/01 06:20:24;;;;;;;7.47;2.10;;;16.40;99.90;;;;;;5089976;28;20398;-71
2023/08/01 06:22:50;;;;;;;8.32;2.08;;;16.50;99.90;;;;;;5089451;28;20390;-70
2023/08/01 06:25:15;;;;;;;8.93;1.53;;;16.50;99.90;;;;;;5071635;28;20410;-70
2023/08/01 06:27:41;;;;;;;6.15;1.50;;;16.50;99.90;;;;;;5090205;28;20398;-70
2023/08/01 06:30:07;;;;;;;6.60;1.70;;;16.50;99.90;;;;;;5089424;28;20409;-70
2023/08/01 06:32:33;;;;;;;6.35;1.65;;;16.50;99.90;;;;;;5089499;28;20477;-70
2023/08/01 06:34:58;;;;;;;5.57;2.05;;;16.40;99.90;;;;;;5054985;28;20552;-70
2023/08/01 06:37:24;;;;;;;5.67;2.13;;;16.40;99.90;;;;;;5089506;28;20405;-70
2023/08/01 06:39:50;;;;;;;6.70;2.00;;;16.40;99.90;;;;;;5089030;28;20408;-70
2023/08/01 06:42:16;;;;;;;8.15;2.28;;;16.40;99.90;;;;;;5089304;28;20406;-70
2023/08/01 06:44:41;;;;;;;5.50;1.70;;;16.40;99.90;;;;;;5089430;28;20398;-70
2023/08/01 06:47:07;;;;;;;5.03;1.80;;;16.30;99.90;;;;;;5070874;28;20409;-70
2023/08/01 06:49:33;;;;;;;7.63;2.13;;;16.30;99.90;;;;;;5089060;28;20429;-69
2023/08/01 06:51:58;;;;;;;6.37;1.80;;;16.20;99.90;;;;;;5071195;28;20413;-70
2023/08/01 06:54:24;;;;;;;6.97;1.70;;;16.20;99.90;;;;;;5089352;28;20402;-70
2023/08/01 06:56:49;;;;;;;6.20;1.77;;;16.10;99.90;;;;;;5070673;28;20501;-70
2023/08/01 06:59:15;;;;;;;5.15;1.40;;;16.10;99.90;;;;;;5088901;28;20406;-70
2023/08/01 07:01:43;;;;;;;6.10;1.47;;;16.00;99.90;;;;;;5088961;28;20772;-70
2023/08/01 07:04:13;;;;;;;5.65;1.88;;;16.00;99.90;;;;;;5089074;28;20398;-70
2023/08/01 07:06:39;;;;;;;6.97;2.10;;;15.90;99.90;;;;;;5084714;28;20665;-70
2023/08/01 07:09:05;;;;;;;7.80;1.95;;;15.90;99.90;;;;;;5088242;28;20886;-70
2023/08/01 07:11:31;;;;;;;5.63;1.70;;;15.90;99.90;;;;;;5088802;28;20398;-70
2023/08/01 07:13:56;;;;;;;6.27;1.70;;;15.90;99.90;;;;;;5088859;28;20760;-70
2023/08/01 07:16:22;;;;;;;5.85;1.80;;;15.90;99.90;;;;;;5088968;28;20389;-70
2023/08/01 07:18:48;;;;;;;5.63;1.42;;;15.90;99.90;;;;;;5088358;28;20416;-70
2023/08/01 07:21:14;;;;;;;2.53;1.20;;;16.00;99.90;;;;;;5088577;28;20406;-70
2023/08/01 07:23:40;;;;;;;6.80;1.83;;;16.10;99.90;;;;;;5088683;28;20390;-70
2023/08/01 07:26:06;;;;;;;4.53;1.58;;;16.10;99.90;;;;;;5070633;28;20398;-70
2023/08/01 07:28:31;;;;;;;5.55;1.60;;;16.20;99.90;;;;;;5088485;28;20448;-70
2023/08/01 07:31:04;;;;;;;3.43;1.70;;;16.30;99.90;;;;;;5088804;28;20390;-70
2023/08/01 07:33:30;;;;;;;5.38;1.42;;;16.50;99.90;;;;;;5088417;28;20784;-70
2023/08/01 07:35:56;;;;;;;2.90;1.08;;;16.50;99.90;;;;;;5088440;28;20401;-70
2023/08/01 07:38:22;;;;;;;3.37;1.30;;;16.70;99.90;;;;;;5088625;28;20443;-70
2023/08/01 07:40:47;;;;;;;4.75;1.17;;;16.90;99.90;;;;;;5088630;28;20968;-70
2023/08/01 07:43:13;;;;;;;4.40;1.20;;;17.00;99.90;;;;;;5088389;28;20397;-70
2023/08/01 07:45:39;;;;;;;2.67;1.00;;;17.10;99.90;;;;;;5087982;28;20405;-70
2023/08/01 07:48:04;;;;;;;5.07;1.20;;;17.20;99.90;;;;;;5087901;28;20430;-70
2023/08/01 07:50:30;;;;;;;4.63;0.90;;;17.30;99.90;;;;;;5088062;28;20926;-70
2023/08/01 07:52:56;;;;;;;4.70;1.00;;;17.30;99.90;;;;;;5087776;28;20394;-70
2023/08/01 07:55:21;;;;;;;2.92;0.88;;;17.30;99.90;;;;;;5088291;28;20521;-70
2023/08/01 07:57:50;;;;;;;4.87;0.80;;;17.30;99.90;;;;;;5087892;28;20402;-70
2023/08/01 08:00:16;;;;;;;3.75;0.93;;;17.30;99.90;;;;;;5088546;28;20489;-71
2023/08/01 08:02:42;;;;;;;3.13;0.70;;;17.40;99.90;;;;;;5087952;28;20802;-71
2023/08/01 08:05:09;;;;;;;4.35;0.85;;;17.40;99.90;;;;;;5088126;28;20399;-71
2023/08/01 08:07:36;;;;;;;3.38;0.45;;;17.50;99.90;;;;;;5087953;28;20406;-70
2023/08/01 08:10:01;;;;;;;4.68;0.90;;;17.50;99.90;;;;;;5087965;28;20394;-71
2023/08/01 08:12:27;;;;;;;4.83;0.83;;;17.50;99.90;;;;;;5087737;28;20751;-70
2023/08/01 08:14:52;;;;;;;3.70;0.70;;;17.50;99.90;;;;;;5087581;28;20406;-70
2023/08/01 08:17:18;;;;;;;5.30;0.70;;;17.40;99.90;;;;;;5087641;28;20432;-70
2023/08/01 08:19:44;;;;;;;3.67;0.50;;;17.30;99.90;;;;;;5088167;28;20824;-70
2023/08/01 08:22:09;;;;;;;6.95;0.65;;;17.30;99.90;;;;;;5087786;28;20459;-70
2023/08/01 08:24:35;;;;;;;5.47;0.80;;;17.30;99.90;;;;;;5069564;28;20950;-70
2023/08/01 08:27:01;;;;;;;4.28;0.55;;;17.30;99.90;;;;;;5053363;28;20410;-70
2023/08/01 08:29:26;;;;;;;5.17;0.70;;;17.30;99.90;;;;;;5088914;28;20949;-70
2023/08/01 08:31:52;;;;;;;4.93;0.82;;;17.20;99.90;;;;;;5091874;28;20406;-70
2023/08/01 08:34:18;;;;;;;5.00;0.77;;;17.20;99.90;;;;;;5091801;28;20408;-70
2023/08/01 08:36:43;;;;;;;4.53;0.90;;;17.20;99.90;;;;;;5091935;28;21213;-71
2023/08/01 08:39:09;;;;;;;5.10;0.60;;;17.20;99.90;;;;;;5091722;28;20988;-71
2023/08/01 08:41:43;;;;;;;4.63;0.75;;;17.10;99.90;;;;;;5091485;28;20402;-71
2023/08/01 08:44:10;;;;;;;6.28;0.70;;;17.30;99.90;;;;;;5090942;28;20429;-71
2023/08/01 08:46:43;;;;;;;5.90;0.80;;;17.40;99.90;;;;;;5072934;28;20490;-71
2023/08/01 08:49:09;;;;;;;4.45;0.80;;;17.50;99.90;;;;;;5091403;28;20791;-71
2023/08/01 08:51:36;;;;;;;4.65;0.80;;;17.60;99.90;;;;;;5091299;28;20401;-71
2023/08/01 08:54:03;;;;;;;4.75;0.90;;;17.80;99.90;;;;;;5091639;28;20407;-71
2023/08/01 08:56:29;;;;;;;3.40;0.40;;;17.90;99.90;;;;;;5091436;28;20394;-71
2023/08/01 08:58:56;;;;;;;3.13;0.30;;;17.90;99.90;;;;;;5091508;28;20402;-71
2023/08/01 09:01:21;;;;;;;3.15;0.55;;;18.00;99.90;;;;;;5090967;28;20408;-71
2023/08/01 09:03:47;;;;;;;2.47;0.33;;;18.00;99.90;;;;;;5091761;28;20398;-71
2023/08/01 09:06:19;;;;;;;2.40;0.40;;;17.90;99.90;;;;;;5073437;28;20414;-70
2023/08/01 09:08:51;;;;;;;2.72;0.50;;;17.70;99.90;;;;;;5083490;28;20444;-70
2023/08/01 09:11:17;;;;;;;2.67;0.50;;;17.60;99.90;;;;;;5090959;28;20477;-70
2023/08/01 09:13:43;;;;;;;2.95;0.50;;;17.30;99.90;;;;;;5091499;28;20428;-70
2023/08/01 09:16:09;;;;;;;2.70;0.60;;;17.20;99.90;;;;;;5090885;28;20402;-70
2023/08/01 09:18:46;;;;;;;3.35;0.63;;;17.10;99.90;;;;;;5091621;28;20804;-70
2023/08/01 09:21:11;;;;;;;2.85;0.55;;;17.10;99.90;;;;;;5090681;28;20395;-70
2023/08/01 09:23:37;;;;;;;4.15;0.60;;;17.00;99.90;;;;;;5090583;28;20442;-70
2023/08/01 09:26:13;;;;;;;3.47;0.80;;;17.00;99.90;;;;;;5091136;28;20402;-70
2023/08/01 09:28:38;;;;;;;4.03;0.88;;;17.00;99.90;;;;;;5090048;28;20508;-70
2023/08/01 09:31:04;;;;;;;5.33;0.60;;;17.00;99.90;;;;;;5091247;28;20862;-71
2023/08/01 09:33:39;;;;;;;4.43;0.75;;;17.10;99.90;;;;;;5072893;28;20409;-70
2023/08/01 09:36:06;;;;;;;4.53;1.10;;;17.30;99.90;;;;;;5091542;28;20490;-70
2023/08/01 09:38:35;;;;;;;4.50;0.90;;;17.30;99.90;;;;;;5090574;28;20406;-70
2023/08/01 09:41:01;;;;;;;4.33;1.20;;;17.30;99.90;;;;;;5090467;28;20425;-70
2023/08/01 09:43:34;;;;;;;5.22;0.80;;;17.30;99.90;;;;;;5090523;28;21039;-70
2023/08/01 09:46:00;;;;;;;4.15;0.70;;;17.30;99.90;;;;;;5090635;28;20405;-70
2023/08/01 09:48:27;;;;;;;2.40;0.50;;;17.30;99.90;;;;;;5090447;28;20417;-70
2023/08/01 09:51:12;;;;;;;2.85;0.73;;;17.30;99.90;;;;;;5090696;28;20477;-70
2023/08/01 09:53:54;;;;;;;3.08;0.50;;;17.10;99.90;;;;;;5083066;28;20420;-70
2023/08/01 09:56:25;;;;;;;2.30;0.50;;;17.10;99.90;;;;;;5069105;28;20463;-70
2023/08/01 09:58:53;;;;;;;2.87;0.80;;;17.10;99.90;;;;;;5072705;28;20410;-70
2023/08/01 10:01:21;;;;;;;3.72;0.68;;;17.50;99.90;;;;;;5089929;28;20430;-71
2023/08/01 10:03:52;;;;;;;4.50;0.90;;;17.90;99.90;;;;;;5090265;28;20409;-71
2023/08/01 10:06:19;;;;;;;4.03;0.77;;;18.60;99.90;;;;;;5089959;28;20736;-71
2023/08/01 10:08:46;;;;;;;2.28;0.52;;;19.20;99.90;;;;;;5090433;28;20422;-71
2023/08/01 10:11:14;;;;;;;3.33;0.40;;;19.50;99.90;;;;;;5090080;28;20402;-71
2023/08/01 10:13:42;;;;;;;2.45;0.38;;;19.50;99.90;;;;;;5090628;28;20519;-71
2023/08/01 10:16:09;;;;;;;2.58;0.40;;;19.40;99.90;;;;;;5089262;28;20409;-71
2023/08/01 10:18:37;;;;;;;3.65;0.70;;;19.30;99.90;;;;;;5072225;28;20413;-71
2023/08/01 10:21:04;;;;;;;2.70;0.57;;;19.30;99.90;;;;;;5089888;28;20401;-71
2023/08/01 10:23:31;;;;;;;3.38;0.30;;;19.50;99.90;;;;;;5089834;28;20483;-71
2023/08/01 10:25:59;;;;;;;2.53;0.40;;;19.80;99.90;;;;;;5071016;28;20495;-71
2023/08/01 10:28:52;;;;;;;4.45;0.40;;;20.00;99.90;;;;;;5089735;28;20424;-71
2023/08/01 10:31:18;;;;;;;4.65;0.50;;;20.00;99.90;;;;;;5077887;28;20406;-71
2023/08/01 10:33:47;;;;;;;3.97;0.40;;;19.80;99.90;;;;;;5089466;28;20433;-70
2023/08/01 10:36:17;;;;;;;3.95;0.60;;;19.30;99.90;;;;;;5089043;28;20414;-71
2023/08/01 10:38:50;;;;;;;3.05;0.70;;;18.80;99.90;;;;;;5088082;28;21086;-70
2023/08/01 10:41:20;;;;;;;3.85;0.70;;;18.50;99.90;;;;;;5088670;28;21110;-70
2023/08/01 10:43:46;;;;;;;4.13;0.70;;;18.20;99.90;;;;;;5088161;28;20426;-70
2023/08/01 10:46:12;;;;;;;4.83;0.63;;;18.10;99.90;;;;;;5088612;28;21072;-70
2023/08/01 10:48:53;;;;;;;6.18;0.80;;;18.10;99.90;;;;;;5088233;28;20507;-70
2023/08/01 10:51:19;;;;;;;7.03;1.03;;;18.30;99.90;;;;;;5087784;28;20402;-70
2023/08/01 10:53:45;;;;;;;5.78;0.90;;;18.60;99.90;;;;;;5087525;28;20398;-71
2023/08/01 10:56:20;;;;;;;8.07;1.10;;;19.20;99.90;;;;;;5088386;28;20439;-70
2023/08/01 10:58:47;;;;;;;5.05;0.90;;;19.50;99.90;;;;;;5078362;28;20433;-70
2023/08/01 11:01:13;;;;;;;6.18;1.13;;;19.50;99.90;;;;;;5069882;28;20406;-71
2023/08/01 11:03:39;;;;;;;5.70;1.17;;;19.50;99.90;;;;;;5088366;28;20458;-71
2023/08/01 11:06:05;;;;;;;6.55;1.00;;;19.50;99.90;;;;;;5087510;28;20512;-71
2023/08/01 11:08:39;;;;;;;4.83;0.83;;;19.50;99.90;;;;;;5089061;28;20418;-71
2023/08/01 11:11:12;;;;;;;4.53;0.73;;;19.70;99.90;;;;;;5088823;28;20475;-71
2023/08/01 11:13:38;;;;;;;6.30;0.93;;;19.70;99.90;;;;;;5088636;28;20398;-71
2023/08/01 11:16:05;;;;;;;6.67;0.90;;;19.60;99.90;;;;;;5089085;28;20455;-71
2023/08/01 11:18:43;;;;;;;6.30;1.48;;;19.20;99.90;;;;;;5078287;28;20462;-71
2023/08/01 11:21:09;;;;;;;6.65;0.95;;;19.00;99.90;;;;;;5087872;28;20410;-71
2023/08/01 11:23:36;;;;;;;5.30;0.85;;;19.20;99.90;;;;;;5088821;28;20403;-71
2023/08/01 11:26:08;;;;;;;4.88;0.65;;;19.50;99.90;;;;;;5088541;28;20459;-72
2023/08/01 11:28:34;;;;;;;4.88;0.80;;;20.00;99.90;;;;;;5088308;28;20461;-72
2023/08/01 11:31:00;;;;;;;6.15;1.17;;;20.30;99.90;;;;;;5088769;28;20911;-72
2023/08/01 11:33:26;;;;;;;4.03;0.73;;;20.70;99.90;;;;;;5088248;28;20433;-71
2023/08/01 11:35:59;;;;;;;3.07;0.70;;;20.90;99.90;;;;;;5088967;28;20474;-71
2023/08/01 11:38:33;;;;;;;4.45;0.70;;;21.00;99.90;;;;;;5088121;28;20468;-71
2023/08/01 11:41:00;;;;;;;5.05;0.70;;;20.80;99.90;;;;;;5088823;28;20394;-72
2023/08/01 11:43:25;;;;;;;5.53;0.80;;;20.80;99.90;;;;;;5069856;28;21101;-72
2023/08/01 11:45:56;;;;;;;3.80;0.60;;;21.00;99.90;;;;;;5088779;28;20481;-72
2023/08/01 11:48:25;;;;;;;4.00;0.50;;;20.90;99.90;;;;;;5087947;28;20433;-72
2023/08/01 11:51:00;;;;;;;5.07;0.68;;;20.70;99.90;;;;;;5088703;28;20851;-71
2023/08/01 11:53:26;;;;;;;3.08;0.70;;;20.60;99.90;;;;;;5069923;28;20463;-72
2023/08/01 11:55:52;;;;;;;3.08;0.60;;;20.70;99.90;;;;;;5088387;28;20393;-71
2023/08/01 11:58:34;;;;;;;4.18;0.50;;;20.70;99.90;;;;;;5087696;28;20404;-71
2023/08/01 12:01:10;;;;;;;3.00;0.57;;;20.70;99.90;;;;;;5070101;28;20410;-71
2023/08/01 12:03:46;;;;;;;6.00;0.80;;;20.90;99.90;;;;;;5088077;28;20406;-71
2023/08/01 12:06:13;;;;;;;3.88;0.65;;;21.00;99.90;;;;;;5070199;28;20410;-72
2023/08/01 12:08:39;;;;;;;4.72;0.75;;;21.00;99.90;;;;;;5087991;28;20784;-72
2023/08/01 12:11:05;;;;;;;3.40;0.50;;;21.00;99.90;;;;;;5088176;28;20834;-71
2023/08/01 12:13:31;;;;;;;5.07;0.68;;;21.00;99.90;;;;;;5070025;28;20506;-72
2023/08/01 12:15:57;;;;;;;4.93;0.70;;;21.20;99.90;;;;;;5087913;28;20443;-71
2023/08/01 12:18:29;;;;;;;2.67;0.43;;;21.20;99.90;;;;;;5087268;28;20466;-71
2023/08/01 12:20:55;;;;;;;5.47;0.65;;;21.10;99.90;;;;;;5087568;28;20680;-71
2023/08/01 12:23:21;;;;;;;4.15;0.75;;;20.90;99.90;;;;;;5068107;28;21007;-71
2023/08/01 12:25:47;;;;;;;6.38;0.50;;;20.80;99.90;;;;;;5087494;28;20526;-71
2023/08/01 12:28:16;;;;;;;5.57;0.67;;;20.90;99.90;;;;;;5069979;28;20471;-71
2023/08/01 12:30:44;;;;;;;5.70;0.80;;;20.90;99.90;;;;;;5069376;28;20422;-71
2023/08/01 12:33:10;;;;;;;5.88;0.80;;;21.20;99.90;;;;;;5088002;28;20918;-71
2023/08/01 12:35:40;;;;;;;5.03;0.77;;;21.50;99.90;;;;;;5087906;28;20394;-71
2023/08/01 12:38:07;;;;;;;2.95;0.50;;;21.50;99.90;;;;;;5087105;28;20409;-71
2023/08/01 12:40:32;;;;;;;3.03;0.70;;;21.30;99.90;;;;;;5087413;28;20903;-71